createdAt,value
2017-08-17T00:01:10.315Z,94.30
2017-08-17T00:03:36.716Z,94.10
2017-08-17T00:06:03.137Z,94.30
2017-08-17T00:08:29.530Z,94.20
2017-08-17T00:10:55.928Z,94.20
2017-08-17T00:13:23.083Z,94.50
2017-08-17T00:15:50.227Z,94.50
2017-08-17T00:18:17.382Z,94.50
2017-08-17T00:20:44.519Z,94.40
2017-08-17T00:23:10.922Z,94.40
2017-08-17T00:25:37.334Z,94.40
2017-08-17T00:28:03.719Z,94.30
2017-08-17T00:30:30.875Z,94.40
2017-08-17T00:32:57.276Z,94.40
2017-08-17T00:35:23.722Z,94.50
2017-08-17T00:37:50.140Z,94.40
2017-08-17T00:40:16.560Z,94.30
2017-08-17T00:42:42.991Z,95.00
2017-08-17T00:45:09.413Z,94.50
2017-08-17T00:47:35.835Z,94.70
2017-08-17T00:50:02.253Z,94.60
2017-08-17T00:52:28.711Z,94.50
2017-08-17T00:54:55.125Z,94.40
2017-08-17T00:57:21.556Z,94.30
2017-08-17T00:59:47.959Z,94.30
2017-08-17T01:02:14.356Z,94.30
2017-08-17T01:04:40.772Z,94.30
2017-08-17T01:07:07.267Z,94.20
2017-08-17T01:09:34.435Z,94.30
2017-08-17T01:12:00.831Z,94.30
2017-08-17T01:14:27.291Z,94.50
2017-08-17T01:16:54.443Z,95.00
2017-08-17T01:19:20.886Z,94.90
2017-08-17T01:21:47.315Z,94.90
2017-08-17T01:24:13.807Z,94.70
2017-08-17T01:26:40.242Z,94.60
2017-08-17T01:29:06.665Z,94.70
2017-08-17T01:31:33.118Z,94.60
2017-08-17T01:33:59.543Z,94.70
2017-08-17T01:36:26.016Z,94.80
2017-08-17T01:38:52.479Z,94.70
2017-08-17T01:41:18.935Z,94.60
2017-08-17T01:43:45.383Z,94.70
2017-08-17T01:46:11.807Z,94.70
2017-08-17T01:48:38.230Z,94.70
2017-08-17T01:51:04.692Z,94.70
2017-08-17T01:53:31.108Z,94.70
2017-08-17T01:55:57.551Z,94.80
2017-08-17T01:58:23.991Z,94.60
2017-08-17T02:00:51.151Z,94.80
2017-08-17T02:03:17.603Z,94.70
2017-08-17T02:05:43.986Z,94.20
2017-08-17T02:08:10.411Z,94.20
2017-08-17T02:10:36.830Z,94.20
2017-08-17T02:13:03.228Z,94.30
2017-08-17T02:15:29.622Z,94.30
2017-08-17T02:17:56.003Z,94.30
2017-08-17T02:20:22.424Z,94.20
2017-08-17T02:22:48.860Z,94.30
2017-08-17T02:25:15.240Z,94.20
2017-08-17T02:27:41.644Z,94.20
2017-08-17T02:30:08.032Z,94.10
2017-08-17T02:32:35.192Z,94.30
2017-08-17T02:35:02.312Z,94.40
2017-08-17T02:37:28.679Z,94.40
2017-08-17T02:39:55.824Z,94.20
2017-08-17T02:42:22.187Z,94.20
2017-08-17T02:44:48.583Z,94.20
2017-08-17T02:47:15.700Z,94.30
2017-08-17T02:49:42.085Z,94.30
2017-08-17T02:52:08.497Z,94.50
2017-08-17T02:54:35.612Z,94.50
2017-08-17T02:57:02.014Z,94.50
2017-08-17T02:59:28.419Z,94.20
2017-08-17T03:01:55.546Z,94.00
2017-08-17T03:04:21.979Z,94.00
2017-08-17T03:06:48.382Z,94.10
2017-08-17T03:09:14.835Z,94.20
2017-08-17T03:11:41.232Z,94.10
2017-08-17T03:14:07.757Z,93.90
2017-08-17T03:16:34.168Z,94.00
2017-08-17T03:19:00.547Z,94.00
2017-08-17T03:21:26.961Z,94.00
2017-08-17T03:23:53.364Z,94.00
2017-08-17T03:26:19.772Z,94.20
2017-08-17T03:28:46.147Z,94.30
2017-08-17T03:31:12.575Z,94.10
2017-08-17T03:33:38.987Z,94.20
2017-08-17T03:36:06.104Z,94.00
2017-08-17T03:38:32.475Z,94.00
2017-08-17T03:40:58.872Z,94.10
2017-08-17T03:43:25.271Z,94.00
2017-08-17T03:45:51.672Z,93.90
2017-08-17T03:48:18.799Z,93.90
2017-08-17T03:50:45.209Z,93.90
2017-08-17T03:53:11.583Z,93.90
2017-08-17T03:55:38.716Z,93.70
2017-08-17T03:58:05.871Z,94.10
2017-08-17T04:00:33.006Z,94.30
2017-08-17T04:02:59.435Z,93.90
2017-08-17T04:05:25.828Z,93.90
2017-08-17T04:07:52.235Z,93.90
2017-08-17T04:10:18.621Z,94.00
2017-08-17T04:12:45.027Z,94.20
2017-08-17T04:15:18.620Z,94.00
2017-08-17T04:17:44.987Z,94.00
2017-08-17T04:20:11.423Z,94.10
2017-08-17T04:22:37.815Z,94.00
2017-08-17T04:25:04.187Z,93.90
2017-08-17T04:27:30.620Z,94.10
2017-08-17T04:29:57.010Z,94.20
2017-08-17T04:32:23.392Z,94.30
2017-08-17T04:34:49.843Z,94.20
2017-08-17T04:37:16.435Z,94.20
2017-08-17T04:39:42.938Z,94.10
2017-08-17T04:42:09.368Z,94.10
2017-08-17T04:44:35.776Z,94.30
2017-08-17T04:47:02.988Z,94.20
2017-08-17T04:49:29.411Z,94.20
2017-08-17T04:51:55.944Z,94.40
2017-08-17T04:54:22.392Z,94.30
2017-08-17T04:57:12.747Z,94.50
2017-08-17T04:59:39.119Z,94.70
2017-08-17T05:02:05.523Z,94.70
2017-08-17T05:04:31.916Z,94.80
2017-08-17T05:06:59.076Z,95.40
2017-08-17T05:09:26.204Z,95.10
2017-08-17T05:11:53.360Z,95.50
2017-08-17T05:14:19.784Z,95.20
2017-08-17T05:16:46.159Z,94.70
2017-08-17T05:19:12.559Z,94.60
2017-08-17T05:21:39.707Z,95.00
2017-08-17T05:24:06.152Z,94.90
2017-08-17T05:26:33.327Z,94.70
2017-08-17T05:28:59.756Z,94.70
2017-08-17T05:31:26.143Z,94.40
2017-08-17T05:33:52.508Z,94.30
2017-08-17T05:36:18.975Z,94.00
2017-08-17T05:38:45.395Z,94.60
2017-08-17T05:41:11.775Z,93.90
2017-08-17T05:43:38.197Z,93.90
2017-08-17T05:46:04.587Z,94.10
2017-08-17T05:48:30.967Z,93.90
2017-08-17T05:50:57.432Z,93.70
2017-08-17T05:53:24.567Z,93.40
2017-08-17T05:55:50.979Z,93.30
2017-08-17T05:58:17.363Z,93.40
2017-08-17T06:00:43.759Z,93.10
2017-08-17T06:03:10.168Z,92.90
2017-08-17T06:05:36.565Z,92.60
2017-08-17T06:08:02.991Z,92.90
2017-08-17T06:10:29.408Z,93.00
2017-08-17T06:12:56.580Z,92.30
2017-08-17T06:15:22.984Z,92.30
2017-08-17T06:17:50.136Z,92.30
2017-08-17T06:20:17.271Z,92.40
2017-08-17T06:22:43.647Z,92.40
2017-08-17T06:25:10.095Z,92.50
2017-08-17T06:27:36.511Z,93.00
2017-08-17T06:30:02.997Z,92.70
2017-08-17T06:32:29.380Z,92.60
2017-08-17T06:34:55.776Z,92.80
2017-08-17T06:37:22.928Z,92.20
2017-08-17T06:39:50.071Z,91.90
2017-08-17T06:42:17.207Z,91.60
2017-08-17T06:44:43.611Z,91.60
2017-08-17T06:47:10.011Z,92.00
2017-08-17T06:49:36.398Z,92.00
2017-08-17T06:52:02.807Z,91.90
2017-08-17T06:54:29.193Z,92.00
2017-08-17T06:56:56.316Z,91.60
2017-08-17T06:59:22.731Z,91.60
2017-08-17T07:01:49.114Z,92.00
2017-08-17T07:04:16.279Z,92.50
2017-08-17T07:06:42.655Z,92.10
2017-08-17T07:09:09.035Z,92.00
2017-08-17T07:11:35.448Z,91.60
2017-08-17T07:14:02.599Z,91.50
2017-08-17T07:16:29.071Z,91.50
2017-08-17T07:18:55.447Z,91.20
2017-08-17T07:21:21.856Z,91.30
2017-08-17T07:23:48.267Z,91.20
2017-08-17T07:26:14.684Z,91.00
2017-08-17T07:28:41.075Z,90.30
2017-08-17T07:31:07.479Z,90.00
2017-08-17T07:33:33.900Z,90.00
2017-08-17T07:36:00.269Z,89.80
2017-08-17T07:38:26.672Z,89.40
2017-08-17T07:40:53.091Z,89.10
2017-08-17T07:43:19.476Z,89.20
2017-08-17T07:45:46.642Z,86.10
2017-08-17T07:48:13.788Z,85.70
2017-08-17T07:50:40.940Z,85.70
2017-08-17T07:53:08.115Z,86.10
2017-08-17T07:55:34.534Z,86.00
2017-08-17T07:58:00.972Z,86.50
2017-08-17T08:00:27.383Z,87.00
2017-08-17T08:02:54.531Z,87.00
2017-08-17T08:05:21.693Z,85.10
2017-08-17T08:07:48.089Z,85.00
2017-08-17T08:10:14.506Z,83.70
2017-08-17T08:12:40.916Z,84.30
2017-08-17T08:15:07.336Z,84.50
2017-08-17T08:17:33.735Z,83.30
2017-08-17T08:20:00.127Z,82.20
2017-08-17T08:22:26.531Z,80.20
2017-08-17T08:24:52.936Z,79.60
2017-08-17T08:27:19.350Z,80.00
2017-08-17T08:29:45.768Z,81.80
2017-08-17T08:32:12.180Z,79.30
2017-08-17T08:34:38.548Z,78.00
2017-08-17T08:37:04.930Z,79.10
2017-08-17T08:39:31.350Z,78.10
2017-08-17T08:41:58.466Z,74.70
2017-08-17T08:44:24.855Z,74.60
2017-08-17T08:46:51.252Z,74.10
2017-08-17T08:49:18.370Z,74.90
2017-08-17T08:51:44.767Z,74.90
2017-08-17T08:54:11.163Z,73.80
2017-08-17T08:56:38.295Z,73.20
2017-08-17T08:59:04.732Z,73.20
2017-08-17T09:01:31.139Z,72.80
2017-08-17T09:03:57.519Z,73.80
2017-08-17T09:06:24.675Z,72.60
2017-08-17T09:08:51.059Z,72.50
2017-08-17T09:11:17.487Z,72.40
2017-08-17T09:13:43.868Z,72.50
2017-08-17T09:16:11.012Z,75.10
2017-08-17T09:18:38.155Z,73.90
2017-08-17T09:21:04.542Z,73.70
2017-08-17T09:23:30.984Z,72.20
2017-08-17T09:25:57.372Z,71.00
2017-08-17T09:28:23.802Z,72.60
2017-08-17T09:30:50.179Z,73.00
2017-08-17T09:33:16.548Z,73.40
2017-08-17T09:35:42.943Z,74.00
2017-08-17T09:38:16.380Z,73.00
2017-08-17T09:40:43.512Z,73.20
2017-08-17T09:43:09.892Z,73.20
2017-08-17T09:45:36.324Z,69.00
2017-08-17T09:48:02.763Z,69.00
2017-08-17T09:50:29.167Z,70.40
2017-08-17T09:52:56.300Z,68.20
2017-08-17T09:55:22.696Z,68.20
2017-08-17T09:57:49.076Z,67.70
2017-08-17T10:00:16.226Z,68.90
2017-08-17T10:02:42.606Z,68.80
2017-08-17T10:05:09.022Z,66.00
2017-08-17T10:07:35.403Z,64.60
2017-08-17T10:10:01.813Z,65.20
2017-08-17T10:12:28.227Z,67.30
2017-08-17T10:14:54.621Z,71.00
2017-08-17T10:17:21.032Z,66.30
2017-08-17T10:19:47.404Z,66.70
2017-08-17T10:22:13.783Z,64.00
2017-08-17T10:24:40.187Z,64.70
2017-08-17T10:27:06.595Z,67.30
2017-08-17T10:29:32.995Z,64.80
2017-08-17T10:31:59.423Z,62.60
2017-08-17T10:34:25.795Z,60.00
2017-08-17T10:36:52.179Z,62.80
2017-08-17T10:39:18.594Z,60.80
2017-08-17T10:41:45.011Z,58.50
2017-08-17T10:44:11.392Z,59.70
2017-08-17T10:46:37.770Z,60.80
2017-08-17T10:49:04.175Z,60.00
2017-08-17T10:51:30.564Z,62.10
2017-08-17T10:53:57.791Z,61.70
2017-08-17T10:56:24.183Z,64.50
2017-08-17T10:58:51.292Z,66.20
2017-08-17T11:01:17.700Z,66.00
2017-08-17T11:03:44.091Z,58.90
2017-08-17T11:06:11.228Z,62.70
2017-08-17T11:08:37.683Z,62.70
2017-08-17T11:11:04.072Z,59.70
2017-08-17T11:13:30.507Z,63.10
2017-08-17T11:15:56.887Z,59.10
2017-08-17T11:18:23.259Z,58.60
2017-08-17T11:20:49.648Z,63.20
2017-08-17T11:23:16.040Z,59.40
2017-08-17T11:25:42.470Z,56.10
2017-08-17T11:28:08.926Z,58.30
2017-08-17T11:30:35.312Z,68.70
2017-08-17T11:33:01.715Z,57.20
2017-08-17T11:35:28.088Z,55.60
2017-08-17T11:37:54.500Z,58.30
2017-08-17T11:40:27.944Z,58.50
2017-08-17T11:42:54.324Z,58.10
2017-08-17T11:45:20.718Z,56.60
2017-08-17T11:47:47.132Z,56.10
2017-08-17T11:50:13.556Z,53.70
2017-08-17T11:52:39.976Z,57.20
2017-08-17T11:55:06.378Z,52.60
2017-08-17T11:57:32.799Z,52.50
2017-08-17T11:59:59.227Z,52.40
2017-08-17T12:02:26.379Z,53.60
2017-08-17T12:04:52.756Z,53.60
2017-08-17T12:07:19.156Z,52.20
2017-08-17T12:09:45.564Z,51.40
2017-08-17T12:12:11.959Z,50.50
2017-08-17T12:14:38.352Z,52.30
2017-08-17T12:17:04.776Z,50.00
2017-08-17T12:19:31.191Z,52.40
2017-08-17T12:21:57.563Z,50.00
2017-08-17T12:24:23.976Z,50.00
2017-08-17T12:26:50.355Z,50.10
2017-08-17T12:29:16.787Z,52.00
2017-08-17T12:31:43.206Z,48.90
2017-08-17T12:34:09.603Z,50.10
2017-08-17T12:36:36.751Z,46.70
2017-08-17T12:39:03.287Z,46.70
2017-08-17T12:41:29.814Z,47.90
2017-08-17T12:43:56.955Z,45.60
2017-08-17T12:46:24.120Z,43.60
2017-08-17T12:48:51.244Z,43.80
2017-08-17T12:51:17.647Z,43.70
2017-08-17T12:53:44.043Z,42.40
2017-08-17T12:56:10.447Z,43.00
2017-08-17T12:58:36.858Z,43.20
2017-08-17T13:01:03.263Z,44.70
2017-08-17T13:03:29.683Z,42.50
2017-08-17T13:05:56.068Z,43.40
2017-08-17T13:08:22.484Z,44.90
2017-08-17T13:10:48.883Z,41.80
2017-08-17T13:13:15.468Z,43.00
2017-08-17T13:15:41.884Z,41.10
2017-08-17T13:18:08.304Z,41.40
2017-08-17T13:20:34.728Z,41.00
2017-08-17T13:23:01.106Z,41.70
2017-08-17T13:25:27.471Z,41.70
2017-08-17T13:27:53.898Z,41.40
2017-08-17T13:30:20.340Z,39.70
2017-08-17T13:32:46.719Z,41.20
2017-08-17T13:35:13.116Z,42.80
2017-08-17T13:37:39.527Z,40.50
2017-08-17T13:40:05.903Z,39.80
2017-08-17T13:42:32.288Z,43.40
2017-08-17T13:44:58.688Z,39.70
2017-08-17T13:47:25.061Z,38.50
2017-08-17T13:49:51.498Z,40.30
2017-08-17T13:52:17.879Z,42.20
2017-08-17T13:54:44.261Z,40.50
2017-08-17T13:57:10.675Z,41.50
2017-08-17T13:59:37.080Z,42.20
2017-08-17T14:02:03.491Z,42.10
2017-08-17T14:04:29.875Z,41.90
2017-08-17T14:06:56.287Z,39.30
2017-08-17T14:09:22.676Z,41.20
2017-08-17T14:11:49.084Z,42.20
2017-08-17T14:14:15.491Z,41.50
2017-08-17T14:16:42.612Z,39.10
2017-08-17T14:19:09.066Z,38.40
2017-08-17T14:21:36.219Z,42.70
2017-08-17T14:24:02.615Z,42.70
2017-08-17T14:26:29.065Z,42.30
2017-08-17T14:28:55.474Z,41.60
2017-08-17T14:31:21.858Z,41.30
2017-08-17T14:33:49.000Z,43.00
2017-08-17T14:36:16.163Z,40.90
2017-08-17T14:38:43.270Z,40.00
2017-08-17T14:41:09.675Z,39.90
2017-08-17T14:43:36.079Z,39.70
2017-08-17T14:46:02.544Z,40.60
2017-08-17T14:48:28.972Z,39.10
2017-08-17T14:50:55.362Z,39.10
2017-08-17T14:53:22.492Z,39.30
2017-08-17T14:55:48.898Z,39.30
2017-08-17T14:58:15.332Z,39.10
2017-08-17T15:00:41.742Z,41.20
2017-08-17T15:03:08.214Z,39.30
2017-08-17T15:05:34.621Z,41.40
2017-08-17T15:08:01.079Z,42.10
2017-08-17T15:10:27.972Z,42.10
2017-08-17T15:12:54.593Z,41.60
2017-08-17T15:15:21.019Z,41.40
2017-08-17T15:17:47.419Z,42.50
2017-08-17T15:20:13.827Z,44.50
2017-08-17T15:22:40.208Z,43.30
2017-08-17T15:25:06.594Z,43.90
2017-08-17T15:27:32.976Z,44.90
2017-08-17T15:29:59.488Z,44.70
2017-08-17T15:32:25.875Z,46.00
2017-08-17T15:34:52.264Z,46.10
2017-08-17T15:37:18.671Z,45.70
2017-08-17T15:39:45.123Z,45.90
2017-08-17T15:42:11.556Z,47.70
2017-08-17T15:44:37.962Z,45.80
2017-08-17T15:47:04.334Z,45.30
2017-08-17T15:49:30.753Z,45.60
2017-08-17T15:51:57.160Z,45.40
2017-08-17T15:54:23.627Z,47.10
2017-08-17T15:56:50.050Z,47.20
2017-08-17T15:59:16.472Z,47.60
2017-08-17T16:01:42.876Z,49.20
2017-08-17T16:04:09.252Z,48.30
2017-08-17T16:06:35.652Z,51.00
2017-08-17T16:09:02.095Z,48.30
2017-08-17T16:11:28.515Z,48.50
2017-08-17T16:13:54.947Z,50.50
2017-08-17T16:16:21.328Z,50.50
2017-08-17T16:18:47.811Z,52.30
2017-08-17T16:21:14.254Z,49.20
2017-08-17T16:23:40.632Z,50.80
2017-08-17T16:26:07.088Z,52.00
2017-08-17T16:28:33.504Z,50.70
2017-08-17T16:31:00.695Z,51.60
2017-08-17T16:33:27.136Z,51.60
2017-08-17T16:35:53.514Z,53.60
2017-08-17T16:38:19.891Z,54.70
2017-08-17T16:40:46.340Z,52.10
2017-08-17T16:43:12.748Z,53.50
2017-08-17T16:45:39.161Z,56.30
2017-08-17T16:48:05.547Z,56.60
2017-08-17T16:50:31.959Z,56.90
2017-08-17T16:52:58.358Z,58.60
2017-08-17T16:55:25.520Z,60.20
2017-08-17T16:57:51.902Z,60.10
2017-08-17T17:00:18.307Z,60.10
2017-08-17T17:02:44.716Z,60.40
2017-08-17T17:05:11.096Z,60.80
2017-08-17T17:07:37.480Z,62.70
2017-08-17T17:10:03.970Z,61.90
2017-08-17T17:12:30.344Z,61.70
2017-08-17T17:14:56.766Z,61.40
2017-08-17T17:17:23.883Z,64.40
2017-08-17T17:19:50.300Z,64.40
2017-08-17T17:22:16.679Z,65.00
2017-08-17T17:24:43.076Z,64.10
2017-08-17T17:27:09.467Z,65.40
2017-08-17T17:29:35.923Z,66.10
2017-08-17T17:32:02.330Z,66.30
2017-08-17T17:34:28.732Z,67.10
2017-08-17T17:36:55.131Z,66.90
2017-08-17T17:39:21.533Z,68.20
2017-08-17T17:41:47.922Z,68.30
2017-08-17T17:44:14.332Z,68.00
2017-08-17T17:46:40.751Z,67.80
2017-08-17T17:49:07.139Z,68.70
2017-08-17T17:51:33.624Z,68.70
2017-08-17T17:54:00.047Z,69.80
2017-08-17T17:56:26.422Z,70.60
2017-08-17T17:58:53.560Z,70.40
2017-08-17T18:01:20.074Z,70.10
2017-08-17T18:03:46.451Z,70.90
2017-08-17T18:06:12.874Z,71.00
2017-08-17T18:08:40.044Z,73.40
2017-08-17T18:11:06.500Z,73.30
2017-08-17T18:13:32.895Z,73.60
2017-08-17T18:16:00.016Z,73.30
2017-08-17T18:18:26.473Z,73.20
2017-08-17T18:20:52.979Z,74.00
2017-08-17T18:23:19.378Z,73.30
2017-08-17T18:25:45.828Z,73.60
2017-08-17T18:28:12.244Z,73.90
2017-08-17T18:30:38.828Z,74.20
2017-08-17T18:33:05.323Z,73.60
2017-08-17T18:35:31.911Z,73.70
2017-08-17T18:37:59.183Z,74.70
2017-08-17T18:40:25.647Z,74.50
2017-08-17T18:42:52.051Z,74.80
2017-08-17T18:45:18.427Z,75.20
2017-08-17T18:47:44.856Z,75.20
2017-08-17T18:50:11.290Z,76.00
2017-08-17T18:52:37.667Z,76.50
2017-08-17T18:55:04.087Z,77.00
2017-08-17T18:57:31.234Z,79.30
2017-08-17T18:59:57.752Z,78.50
2017-08-17T19:02:24.235Z,77.40
2017-08-17T19:04:50.744Z,77.30
2017-08-17T19:07:17.128Z,77.30
2017-08-17T19:09:43.575Z,77.70
2017-08-17T19:12:09.959Z,78.00
2017-08-17T19:14:36.348Z,79.20
2017-08-17T19:17:03.144Z,79.10
2017-08-17T19:19:30.364Z,79.30
2017-08-17T19:21:57.599Z,78.90
2017-08-17T19:24:24.032Z,79.50
2017-08-17T19:26:50.432Z,80.40
2017-08-17T19:29:16.810Z,80.30
2017-08-17T19:31:43.312Z,80.20
2017-08-17T19:34:09.696Z,80.30
2017-08-17T19:36:36.844Z,80.50
2017-08-17T19:39:03.263Z,80.50
2017-08-17T19:41:30.469Z,80.90
2017-08-17T19:43:56.895Z,80.90
2017-08-17T19:46:23.292Z,81.40
2017-08-17T19:48:49.914Z,82.10
2017-08-17T19:51:17.259Z,83.10
2017-08-17T19:53:44.469Z,83.30
2017-08-17T19:56:10.891Z,83.30
2017-08-17T19:58:37.307Z,84.10
2017-08-17T20:01:03.808Z,84.30
2017-08-17T20:03:30.216Z,83.80
2017-08-17T20:05:56.707Z,84.10
2017-08-17T20:08:23.205Z,84.70
2017-08-17T20:10:50.435Z,85.80
2017-08-17T20:13:16.811Z,85.20
2017-08-17T20:15:44.024Z,86.40
2017-08-17T20:18:10.431Z,86.30
2017-08-17T20:20:36.907Z,86.40
2017-08-17T20:23:04.135Z,86.60
2017-08-17T20:25:30.552Z,86.60
2017-08-17T20:27:56.956Z,86.60
2017-08-17T20:30:24.131Z,87.00
2017-08-17T20:32:50.575Z,87.00
2017-08-17T20:35:16.964Z,86.90
2017-08-17T20:37:44.096Z,87.60
2017-08-17T20:40:10.619Z,87.50
2017-08-17T20:42:37.083Z,87.50
2017-08-17T20:45:03.507Z,87.40
2017-08-17T20:47:29.889Z,87.50
2017-08-17T20:49:56.351Z,87.60
2017-08-17T20:52:22.736Z,87.50
2017-08-17T20:54:49.148Z,87.60
2017-08-17T20:57:15.531Z,87.80
2017-08-17T20:59:41.943Z,87.10
2017-08-17T21:02:08.367Z,87.80
2017-08-17T21:04:34.763Z,87.80
2017-08-17T21:07:01.140Z,88.30
2017-08-17T21:09:27.661Z,88.50
2017-08-17T21:11:54.083Z,88.40
2017-08-17T21:14:21.228Z,88.70
2017-08-17T21:16:48.396Z,89.00
2017-08-17T21:19:14.979Z,89.00
2017-08-17T21:21:41.485Z,89.40
2017-08-17T21:24:07.887Z,89.70
2017-08-17T21:26:35.023Z,89.40
2017-08-17T21:29:02.156Z,90.00
2017-08-17T21:31:28.702Z,89.30
2017-08-17T21:33:55.850Z,89.80
2017-08-17T21:36:22.280Z,89.60
2017-08-17T21:38:49.415Z,90.10
2017-08-17T21:41:15.823Z,89.60
2017-08-17T21:43:42.240Z,89.30
2017-08-17T21:46:08.653Z,89.20
2017-08-17T21:48:35.046Z,89.00
2017-08-17T21:51:01.474Z,89.30
2017-08-17T21:53:27.865Z,89.60
2017-08-17T21:55:54.242Z,89.50
2017-08-17T21:58:20.649Z,89.10
2017-08-17T22:00:47.068Z,89.70
2017-08-17T22:03:13.448Z,90.00
2017-08-17T22:05:39.859Z,90.10
2017-08-17T22:08:06.231Z,90.30
2017-08-17T22:10:33.435Z,90.10
2017-08-17T22:12:59.807Z,90.00
2017-08-17T22:15:26.960Z,89.50
2017-08-17T22:17:54.099Z,89.40
2017-08-17T22:20:20.579Z,89.40
2017-08-17T22:22:46.979Z,89.50
2017-08-17T22:25:14.099Z,90.00
2017-08-17T22:27:40.499Z,90.00
2017-08-17T22:30:06.957Z,90.20
2017-08-17T22:32:33.344Z,90.20
2017-08-17T22:34:59.748Z,90.10
2017-08-17T22:37:26.127Z,90.10
2017-08-17T22:39:52.563Z,90.10
2017-08-17T22:42:18.979Z,90.00
2017-08-17T22:44:45.386Z,89.70
2017-08-17T22:47:12.487Z,89.60
2017-08-17T22:49:38.931Z,89.50
2017-08-17T22:52:05.331Z,89.00
2017-08-17T22:54:31.707Z,89.00
2017-08-17T22:56:58.083Z,89.10
2017-08-17T22:59:24.495Z,88.70
2017-08-17T23:01:51.614Z,88.60
2017-08-17T23:04:18.075Z,88.60
2017-08-17T23:06:44.479Z,88.60
2017-08-17T23:09:10.867Z,89.30
2017-08-17T23:11:37.318Z,88.90
2017-08-17T23:16:36.947Z,88.90
2017-08-17T23:19:03.331Z,88.90
2017-08-17T23:21:30.538Z,89.50
2017-08-17T23:23:56.905Z,89.50
2017-08-17T23:26:23.304Z,89.70
2017-08-17T23:28:56.642Z,90.00
2017-08-17T23:31:23.838Z,90.30
2017-08-17T23:33:50.240Z,90.30
2017-08-17T23:36:16.624Z,90.20
2017-08-17T23:38:43.030Z,90.40
2017-08-17T23:41:09.451Z,90.40
2017-08-17T23:43:35.819Z,90.40
2017-08-17T23:46:02.215Z,90.40
2017-08-17T23:48:28.645Z,90.40
2017-08-17T23:50:55.104Z,90.50
2017-08-17T23:53:21.495Z,90.50
2017-08-17T23:55:48.624Z,90.70
2017-08-17T23:58:15.803Z,90.90
